createdAt,value
2023-01-29T00:00:58.691Z,27.90
2023-01-29T00:01:58.747Z,32.30
2023-01-29T00:02:58.717Z,32.50
2023-01-29T00:03:58.654Z,29.30
2023-01-29T00:04:59.203Z,30.30
2023-01-29T00:05:58.632Z,29.70
2023-01-29T00:06:58.640Z,29.00
2023-01-29T00:07:58.636Z,27.60
2023-01-29T00:08:58.619Z,31.10
2023-01-29T00:09:58.594Z,29.40
2023-01-29T00:10:58.585Z,28.30
2023-01-29T00:11:58.580Z,25.90
2023-01-29T00:12:58.560Z,27.50
2023-01-29T00:13:58.558Z,28.00
2023-01-29T00:14:58.541Z,29.50
2023-01-29T00:15:58.513Z,27.90
2023-01-29T00:16:58.637Z,28.10
2023-01-29T00:17:58.505Z,29.00
2023-01-29T00:18:58.494Z,26.10
2023-01-29T00:19:58.489Z,26.50
2023-01-29T00:20:58.481Z,27.60
2023-01-29T00:21:58.476Z,27.40
2023-01-29T00:22:58.450Z,27.30
2023-01-29T00:23:58.465Z,26.90
2023-01-29T00:24:58.435Z,23.30
2023-01-29T00:25:58.413Z,29.90
2023-01-29T00:26:58.418Z,27.40
2023-01-29T00:27:58.448Z,26.40
2023-01-29T00:28:58.401Z,27.10
2023-01-29T00:29:58.370Z,29.40
2023-01-29T00:30:58.456Z,29.20
2023-01-29T00:31:58.510Z,26.80
2023-01-29T00:32:58.370Z,26.20
2023-01-29T00:33:58.339Z,25.40
2023-01-29T00:34:58.324Z,24.30
2023-01-29T00:35:58.311Z,26.20
2023-01-29T00:36:58.300Z,25.30
2023-01-29T00:37:58.311Z,26.70
2023-01-29T00:38:58.277Z,23.60
2023-01-29T00:39:58.264Z,24.60
2023-01-29T00:40:58.270Z,26.80
2023-01-29T00:41:58.256Z,25.00
2023-01-29T00:42:58.250Z,25.80
2023-01-29T00:43:58.234Z,29.50
2023-01-29T00:44:58.206Z,28.40
2023-01-29T00:45:58.202Z,29.00
2023-01-29T00:46:58.204Z,27.10
2023-01-29T00:47:58.207Z,23.80
2023-01-29T00:49:00.645Z,24.10
2023-01-29T00:49:58.163Z,25.80
2023-01-29T00:50:58.150Z,23.90
2023-01-29T00:51:58.132Z,25.20
2023-01-29T00:52:58.145Z,26.80
2023-01-29T00:53:58.132Z,25.20
2023-01-29T00:54:58.117Z,23.50
2023-01-29T00:55:58.093Z,26.20
2023-01-29T00:56:58.084Z,24.20
2023-01-29T00:57:58.091Z,24.70
2023-01-29T00:58:58.063Z,24.70
2023-01-29T00:59:58.051Z,26.50
2023-01-29T01:00:58.038Z,23.60
2023-01-29T01:01:58.151Z,22.80
2023-01-29T01:02:58.026Z,23.60
2023-01-29T01:03:58.005Z,23.10
2023-01-29T01:04:57.999Z,24.90
2023-01-29T01:05:57.979Z,27.40
2023-01-29T01:06:57.984Z,27.20
2023-01-29T01:07:58.014Z,25.10
2023-01-29T01:08:57.953Z,27.10
2023-01-29T01:09:57.954Z,22.20
2023-01-29T01:10:57.923Z,22.70
2023-01-29T01:11:57.914Z,25.00
2023-01-29T01:12:57.934Z,25.40
2023-01-29T01:13:57.893Z,24.40
2023-01-29T01:14:57.890Z,25.10
2023-01-29T01:15:57.929Z,21.90
2023-01-29T01:16:57.865Z,24.80
2023-01-29T01:17:57.875Z,26.30
2023-01-29T01:18:57.834Z,23.40
2023-01-29T01:19:57.829Z,24.10
2023-01-29T01:20:57.817Z,25.70
2023-01-29T01:21:57.807Z,24.30
2023-01-29T01:22:57.816Z,25.20
2023-01-29T01:23:57.822Z,22.70
2023-01-29T01:24:57.773Z,24.60
2023-01-29T01:25:57.770Z,24.20
2023-01-29T01:26:57.781Z,25.30
2023-01-29T01:27:57.805Z,25.60
2023-01-29T01:28:57.738Z,22.40
2023-01-29T01:29:57.729Z,24.80
2023-01-29T01:30:57.753Z,21.60
2023-01-29T01:31:57.723Z,22.90
2023-01-29T01:32:57.712Z,22.70
2023-01-29T01:33:57.674Z,21.50
2023-01-29T01:34:57.668Z,21.80
2023-01-29T01:35:57.660Z,27.00
2023-01-29T01:36:57.651Z,23.20
2023-01-29T01:37:57.647Z,22.50
2023-01-29T01:38:57.618Z,23.50
2023-01-29T01:39:57.615Z,24.20
2023-01-29T01:40:57.617Z,23.90
2023-01-29T01:41:57.600Z,24.90
2023-01-29T01:42:57.610Z,25.10
2023-01-29T01:43:57.581Z,24.50
2023-01-29T01:44:57.555Z,25.40
2023-01-29T01:45:57.645Z,25.30
2023-01-29T01:46:57.530Z,23.40
2023-01-29T01:47:57.557Z,23.20
2023-01-29T01:48:57.519Z,25.80
2023-01-29T01:49:57.511Z,25.80
2023-01-29T01:50:57.515Z,24.60
2023-01-29T01:51:57.481Z,23.80
2023-01-29T01:52:57.494Z,26.00
2023-01-29T01:53:57.467Z,24.30
2023-01-29T01:54:57.452Z,23.70
2023-01-29T01:55:57.445Z,24.60
2023-01-29T01:56:57.431Z,25.30
2023-01-29T01:57:57.447Z,23.80
2023-01-29T01:58:57.404Z,24.50
2023-01-29T01:59:57.401Z,23.40
2023-01-29T02:00:57.412Z,24.00
2023-01-29T02:01:57.378Z,26.10
2023-01-29T02:02:57.390Z,21.00
2023-01-29T02:03:57.361Z,28.50
2023-01-29T02:04:57.341Z,25.20
2023-01-29T02:05:57.334Z,26.60
2023-01-29T02:06:57.323Z,24.50
2023-01-29T02:07:57.322Z,25.70
2023-01-29T02:08:57.320Z,21.40
2023-01-29T02:09:57.296Z,25.90
2023-01-29T02:10:57.273Z,23.80
2023-01-29T02:11:57.280Z,26.30
2023-01-29T02:12:57.281Z,23.90
2023-01-29T02:13:57.238Z,23.50
2023-01-29T02:14:57.232Z,25.10
2023-01-29T02:15:57.223Z,24.30
2023-01-29T02:16:57.222Z,26.20
2023-01-29T02:17:57.217Z,24.90
2023-01-29T02:18:57.200Z,24.20
2023-01-29T02:19:57.177Z,24.50
2023-01-29T02:20:57.172Z,23.80
2023-01-29T02:21:57.168Z,24.10
2023-01-29T02:22:57.163Z,21.70
2023-01-29T02:23:57.250Z,28.10
2023-01-29T02:24:57.127Z,24.00
2023-01-29T02:25:57.123Z,24.10
2023-01-29T02:26:57.114Z,27.10
2023-01-29T02:27:57.106Z,24.00
2023-01-29T02:28:57.098Z,22.40
2023-01-29T02:29:57.072Z,23.80
2023-01-29T02:30:57.113Z,25.50
2023-01-29T02:31:57.129Z,25.80
2023-01-29T02:32:57.056Z,25.60
2023-01-29T02:33:57.039Z,24.20
2023-01-29T02:34:57.020Z,22.90
2023-01-29T02:35:57.021Z,23.80
2023-01-29T02:36:57.014Z,24.90
2023-01-29T02:37:57.011Z,23.30
2023-01-29T02:38:56.977Z,25.80
2023-01-29T02:39:56.986Z,27.40
2023-01-29T02:40:56.956Z,25.70
2023-01-29T02:41:56.946Z,27.10
2023-01-29T02:42:56.950Z,25.30
2023-01-29T02:43:56.923Z,25.60
2023-01-29T02:44:56.910Z,24.40
2023-01-29T02:45:56.935Z,27.00
2023-01-29T02:46:56.891Z,24.00
2023-01-29T02:47:56.903Z,26.50
2023-01-29T02:48:56.869Z,25.50
2023-01-29T02:49:56.881Z,24.40
2023-01-29T02:50:56.852Z,25.20
2023-01-29T02:51:56.836Z,27.50
2023-01-29T02:52:56.863Z,25.10
2023-01-29T02:53:56.803Z,24.40
2023-01-29T02:54:56.830Z,29.60
2023-01-29T02:55:56.795Z,24.80
2023-01-29T02:56:56.780Z,25.30
2023-01-29T02:57:56.804Z,23.40
2023-01-29T02:58:56.748Z,25.20
2023-01-29T02:59:56.751Z,22.60
2023-01-29T03:00:56.747Z,25.10
2023-01-29T03:01:56.751Z,25.60
2023-01-29T03:02:56.728Z,25.20
2023-01-29T03:03:56.711Z,22.80
2023-01-29T03:04:56.692Z,25.10
2023-01-29T03:05:56.683Z,27.30
2023-01-29T03:06:56.675Z,28.10
2023-01-29T03:07:56.682Z,28.10
2023-01-29T03:08:56.653Z,25.90
2023-01-29T03:09:56.637Z,24.10
2023-01-29T03:10:56.631Z,26.70
2023-01-29T03:11:56.614Z,29.20
2023-01-29T03:12:56.612Z,26.20
2023-01-29T03:13:56.610Z,26.70
2023-01-29T03:14:56.596Z,26.20
2023-01-29T03:15:56.582Z,23.00
2023-01-29T03:16:56.551Z,29.00
2023-01-29T03:17:56.550Z,26.60
2023-01-29T03:18:56.557Z,27.00
2023-01-29T03:19:56.527Z,26.50
2023-01-29T03:20:56.513Z,27.10
2023-01-29T03:21:56.526Z,27.20
2023-01-29T03:22:56.492Z,25.50
2023-01-29T03:23:56.519Z,26.00
2023-01-29T03:24:56.484Z,31.10
2023-01-29T03:25:56.452Z,25.10
2023-01-29T03:26:56.455Z,28.50
2023-01-29T03:27:56.449Z,24.90
2023-01-29T03:28:56.450Z,26.50
2023-01-29T03:29:56.418Z,26.60
2023-01-29T03:30:56.446Z,25.70
2023-01-29T03:31:56.442Z,25.60
2023-01-29T03:32:56.391Z,27.70
2023-01-29T03:33:56.400Z,26.90
2023-01-29T03:34:56.364Z,26.40
2023-01-29T03:35:56.360Z,24.60
2023-01-29T03:36:56.347Z,24.60
2023-01-29T03:37:56.340Z,22.90
2023-01-29T03:38:56.336Z,25.90
2023-01-29T03:39:56.308Z,27.30
2023-01-29T03:40:56.309Z,25.60
2023-01-29T03:41:56.300Z,27.90
2023-01-29T03:42:56.278Z,24.80
2023-01-29T03:43:56.304Z,23.60
2023-01-29T03:44:56.264Z,24.50
2023-01-29T03:45:56.316Z,25.80
2023-01-29T03:46:56.247Z,25.50
2023-01-29T03:47:56.217Z,26.40
2023-01-29T03:48:56.228Z,25.60
2023-01-29T03:49:56.206Z,25.90
2023-01-29T03:50:56.192Z,24.30
2023-01-29T03:51:56.176Z,24.70
2023-01-29T03:52:56.171Z,24.30
2023-01-29T03:53:56.178Z,27.60
2023-01-29T03:54:56.187Z,23.40
2023-01-29T03:55:56.137Z,24.70
2023-01-29T03:56:56.123Z,26.10
2023-01-29T03:57:56.117Z,25.20
2023-01-29T03:58:56.117Z,26.70
2023-01-29T03:59:56.085Z,26.00
2023-01-29T04:00:56.099Z,25.00
2023-01-29T04:01:56.067Z,24.90
2023-01-29T04:02:56.098Z,23.90
2023-01-29T04:03:56.097Z,25.40
2023-01-29T04:04:56.045Z,24.90
2023-01-29T04:05:56.034Z,25.10
2023-01-29T04:06:56.039Z,24.20
2023-01-29T04:07:56.008Z,23.90
2023-01-29T04:08:56.021Z,25.20
2023-01-29T04:09:55.983Z,23.50
2023-01-29T04:10:56.004Z,26.20
2023-01-29T04:11:55.966Z,22.80
2023-01-29T04:12:55.962Z,23.70
2023-01-29T04:13:55.965Z,26.00
2023-01-29T04:14:55.927Z,24.00
2023-01-29T04:15:55.914Z,27.20
2023-01-29T04:16:55.902Z,25.30
2023-01-29T04:17:55.902Z,24.00
2023-01-29T04:18:55.910Z,24.60
2023-01-29T04:19:55.889Z,27.00
2023-01-29T04:20:55.875Z,24.80
2023-01-29T04:21:55.883Z,24.20
2023-01-29T04:22:55.845Z,23.80
2023-01-29T04:23:55.957Z,24.30
2023-01-29T04:24:55.832Z,24.40
2023-01-29T04:25:55.819Z,23.60
2023-01-29T04:26:55.793Z,25.70
2023-01-29T04:27:55.800Z,22.80
2023-01-29T04:28:55.803Z,25.10
2023-01-29T04:29:55.768Z,24.60
2023-01-29T04:30:55.860Z,26.10
2023-01-29T04:31:55.794Z,27.60
2023-01-29T04:32:55.746Z,23.90
2023-01-29T04:33:55.739Z,24.80
2023-01-29T04:34:55.717Z,23.70
2023-01-29T04:35:55.712Z,24.40
2023-01-29T04:36:55.704Z,25.30
2023-01-29T04:37:55.688Z,27.00
2023-01-29T04:38:55.690Z,23.40
2023-01-29T04:39:55.664Z,25.70
2023-01-29T04:40:55.647Z,26.40
2023-01-29T04:41:55.638Z,27.10
2023-01-29T04:42:55.626Z,25.90
2023-01-29T04:43:55.640Z,22.80
2023-01-29T04:44:55.610Z,24.60
2023-01-29T04:45:55.597Z,24.60
2023-01-29T04:46:55.588Z,27.10
2023-01-29T04:47:55.567Z,23.60
2023-01-29T04:48:55.582Z,26.20
2023-01-29T04:49:55.571Z,26.00
2023-01-29T04:50:55.554Z,28.20
2023-01-29T04:51:55.541Z,23.70
2023-01-29T04:52:55.527Z,25.70
2023-01-29T04:53:55.530Z,22.70
2023-01-29T04:54:55.491Z,27.10
2023-01-29T04:55:55.483Z,26.30
2023-01-29T04:56:55.471Z,27.20
2023-01-29T04:57:55.463Z,25.50
2023-01-29T04:58:55.480Z,26.50
2023-01-29T04:59:55.439Z,25.20
2023-01-29T05:00:55.432Z,24.20
2023-01-29T05:01:55.464Z,26.80
2023-01-29T05:02:55.500Z,24.50
2023-01-29T05:03:55.412Z,21.70
2023-01-29T05:04:55.383Z,25.60
2023-01-29T05:05:55.387Z,26.20
2023-01-29T05:06:55.368Z,25.50
2023-01-29T05:07:55.370Z,27.80
2023-01-29T05:08:55.355Z,26.00
2023-01-29T05:09:55.333Z,25.40
2023-01-29T05:10:55.323Z,26.00
2023-01-29T05:11:55.309Z,24.40
2023-01-29T05:12:55.301Z,24.80
2023-01-29T05:13:55.335Z,26.60
2023-01-29T05:14:55.291Z,26.70
2023-01-29T05:15:55.290Z,25.20
2023-01-29T05:16:55.262Z,25.00
2023-01-29T05:17:55.245Z,27.50
2023-01-29T05:18:55.257Z,26.00
2023-01-29T05:19:55.228Z,26.80
2023-01-29T05:20:55.213Z,26.10
2023-01-29T05:21:55.209Z,25.40
2023-01-29T05:22:55.192Z,26.80
2023-01-29T05:23:55.253Z,26.90
2023-01-29T05:24:55.190Z,25.30
2023-01-29T05:25:55.153Z,26.30
2023-01-29T05:26:56.032Z,28.50
2023-01-29T05:27:55.248Z,24.80
2023-01-29T05:28:56.246Z,27.70
2023-01-29T05:29:55.124Z,25.70
2023-01-29T05:30:55.204Z,27.00
2023-01-29T05:31:55.139Z,28.70
2023-01-29T05:32:55.091Z,27.30
2023-01-29T05:33:55.088Z,26.40
2023-01-29T05:34:55.071Z,27.80
2023-01-29T05:35:55.062Z,26.50
2023-01-29T05:36:55.043Z,27.30
2023-01-29T05:37:55.028Z,27.70
2023-01-29T05:38:55.055Z,26.80
2023-01-29T05:39:55.000Z,28.40
2023-01-29T05:40:55.038Z,29.90
2023-01-29T05:41:54.992Z,27.00
2023-01-29T05:42:55.002Z,26.60
2023-01-29T05:43:54.990Z,25.10
2023-01-29T05:44:55.021Z,26.70
2023-01-29T05:45:55.017Z,24.30
2023-01-29T05:46:55.056Z,28.10
2023-01-29T05:47:54.922Z,28.60
2023-01-29T05:48:54.939Z,29.10
2023-01-29T05:49:54.903Z,26.60
2023-01-29T05:50:54.892Z,27.30
2023-01-29T05:51:54.885Z,28.00
2023-01-29T05:52:54.864Z,26.90
2023-01-29T05:53:54.869Z,27.10
2023-01-29T05:54:54.855Z,29.10
2023-01-29T05:55:54.842Z,27.50
2023-01-29T05:56:54.838Z,28.60
2023-01-29T05:57:54.817Z,28.10
2023-01-29T05:58:54.805Z,28.70
2023-01-29T05:59:54.814Z,29.90
2023-01-29T06:00:54.788Z,27.60
2023-01-29T06:01:54.794Z,29.70
2023-01-29T06:02:54.775Z,26.50
2023-01-29T06:03:54.742Z,28.70
2023-01-29T06:04:54.757Z,24.60
2023-01-29T06:05:54.732Z,28.30
2023-01-29T06:06:54.717Z,28.10
2023-01-29T06:07:54.711Z,26.70
2023-01-29T06:08:54.699Z,26.40
2023-01-29T06:09:54.705Z,27.10
2023-01-29T06:10:54.684Z,26.60
2023-01-29T06:11:54.666Z,27.70
2023-01-29T06:12:54.649Z,28.40
2023-01-29T06:13:54.643Z,26.20
2023-01-29T06:14:54.671Z,27.30
2023-01-29T06:15:54.694Z,27.70
2023-01-29T06:16:54.618Z,27.20
2023-01-29T06:17:54.601Z,26.40
2023-01-29T06:18:54.590Z,30.00
2023-01-29T06:19:54.604Z,30.00
2023-01-29T06:20:54.564Z,27.70
2023-01-29T06:21:54.560Z,26.70
2023-01-29T06:22:54.551Z,30.30
2023-01-29T06:23:54.585Z,25.70
2023-01-29T06:24:54.547Z,28.60
2023-01-29T06:25:54.507Z,27.50
2023-01-29T06:26:54.511Z,30.10
2023-01-29T06:27:54.492Z,28.80
2023-01-29T06:28:54.488Z,29.70
2023-01-29T06:29:54.488Z,30.00
2023-01-29T06:30:54.503Z,27.80
2023-01-29T06:31:54.645Z,26.90
2023-01-29T06:32:54.438Z,25.00
2023-01-29T06:33:54.436Z,28.40
2023-01-29T06:34:54.432Z,26.50
2023-01-29T06:35:54.406Z,29.50
2023-01-29T06:36:54.413Z,26.80
2023-01-29T06:37:54.383Z,27.50
2023-01-29T06:38:54.372Z,26.30
2023-01-29T06:39:54.388Z,28.10
2023-01-29T06:40:54.352Z,28.40
2023-01-29T06:41:54.337Z,28.30
2023-01-29T06:42:54.328Z,27.60
2023-01-29T06:43:54.342Z,25.80
2023-01-29T06:44:54.330Z,30.50
2023-01-29T06:45:54.348Z,29.10
2023-01-29T06:46:54.288Z,29.90
2023-01-29T06:47:54.282Z,28.80
2023-01-29T06:48:54.282Z,28.60
2023-01-29T06:49:54.276Z,25.10
2023-01-29T06:50:54.240Z,29.10
2023-01-29T06:51:54.233Z,27.30
2023-01-29T06:52:54.223Z,26.00
2023-01-29T06:53:54.247Z,25.10
2023-01-29T06:54:54.250Z,28.90
2023-01-29T06:55:54.186Z,29.20
2023-01-29T06:56:54.192Z,28.00
2023-01-29T06:57:54.168Z,27.70
2023-01-29T06:58:54.157Z,29.00
2023-01-29T06:59:54.169Z,28.50
2023-01-29T07:00:54.228Z,26.80
2023-01-29T07:01:54.169Z,32.10
2023-01-29T07:02:54.110Z,28.80
2023-01-29T07:03:54.107Z,29.10
2023-01-29T07:04:54.104Z,27.00
2023-01-29T07:05:54.083Z,28.90
2023-01-29T07:06:54.071Z,28.20
2023-01-29T07:07:54.062Z,28.10
2023-01-29T07:08:54.048Z,26.80
2023-01-29T07:09:54.056Z,26.40
2023-01-29T07:10:54.033Z,30.00
2023-01-29T07:11:54.010Z,29.80
2023-01-29T07:12:54.011Z,31.10
2023-01-29T07:13:54.014Z,28.00
2023-01-29T07:14:54.015Z,29.70
2023-01-29T07:15:53.968Z,28.50
2023-01-29T07:16:53.970Z,31.20
2023-01-29T07:17:53.951Z,29.40
2023-01-29T07:18:53.945Z,28.80
2023-01-29T07:19:53.952Z,30.20
2023-01-29T07:20:53.917Z,28.70
2023-01-29T07:21:53.899Z,30.80
2023-01-29T07:22:53.899Z,31.80
2023-01-29T07:23:53.957Z,30.90
2023-01-29T07:24:53.903Z,31.10
2023-01-29T07:25:53.863Z,28.00
2023-01-29T07:26:53.859Z,30.50
2023-01-29T07:27:53.864Z,30.80
2023-01-29T07:28:53.828Z,33.70
2023-01-29T07:29:53.834Z,30.70
2023-01-29T07:30:53.864Z,30.70
2023-01-29T07:31:53.981Z,32.10
2023-01-29T07:32:53.810Z,31.90
2023-01-29T07:33:53.785Z,31.70
2023-01-29T07:34:53.782Z,32.60
2023-01-29T07:35:53.755Z,32.00
2023-01-29T07:36:53.767Z,30.30
2023-01-29T07:37:53.733Z,31.10
2023-01-29T07:38:53.743Z,33.40
2023-01-29T07:39:53.736Z,34.50
2023-01-29T07:40:53.714Z,32.40
2023-01-29T07:41:53.696Z,34.10
2023-01-29T07:42:53.671Z,29.50
2023-01-29T07:43:53.671Z,32.60
2023-01-29T07:44:53.677Z,31.10
2023-01-29T07:45:53.709Z,33.60
2023-01-29T07:46:53.649Z,36.80
2023-01-29T07:47:53.635Z,30.70
2023-01-29T07:48:53.628Z,34.00
2023-01-29T07:49:53.620Z,32.20
2023-01-29T07:50:53.595Z,30.70
2023-01-29T07:51:53.589Z,33.40
2023-01-29T07:52:53.582Z,31.30
2023-01-29T07:53:53.567Z,32.60
2023-01-29T07:54:53.567Z,33.70
2023-01-29T07:55:53.547Z,32.40
2023-01-29T07:56:53.529Z,33.50
2023-01-29T07:57:53.529Z,33.70
2023-01-29T07:58:53.510Z,35.00
2023-01-29T07:59:53.519Z,36.90
2023-01-29T08:00:53.525Z,34.60
2023-01-29T08:01:53.535Z,35.30
2023-01-29T08:02:53.472Z,33.00
2023-01-29T08:03:53.457Z,35.50
2023-01-29T08:04:53.465Z,34.70
2023-01-29T08:05:53.432Z,34.70
2023-01-29T08:06:53.411Z,37.80
2023-01-29T08:08:05.688Z,37.30
2023-01-29T08:08:53.402Z,36.20
2023-01-29T08:09:53.406Z,34.10
2023-01-29T08:10:53.387Z,37.60
2023-01-29T08:11:53.366Z,38.20
2023-01-29T08:12:53.357Z,38.90
2023-01-29T08:13:53.348Z,41.80
2023-01-29T08:14:53.357Z,38.20
2023-01-29T08:15:53.321Z,37.90
2023-01-29T08:16:53.402Z,40.00
2023-01-29T08:24:06.016Z,39.70
2023-01-29T08:24:11.803Z,40.60
2023-01-29T08:25:11.375Z,42.10
2023-01-29T08:26:11.345Z,41.20
2023-01-29T08:27:11.334Z,40.80
2023-01-29T08:28:11.323Z,43.80
2023-01-29T08:29:11.326Z,43.50
2023-01-29T08:30:11.318Z,47.10
2023-01-29T08:31:11.316Z,45.40
2023-01-29T08:32:11.281Z,48.60
2023-01-29T08:33:11.273Z,47.10
2023-01-29T08:34:11.252Z,49.40
2023-01-29T08:35:11.265Z,44.80
2023-01-29T08:36:11.254Z,45.30
2023-01-29T08:37:11.217Z,53.00
2023-01-29T08:38:11.209Z,45.00
2023-01-29T08:39:11.232Z,49.20
2023-01-29T08:40:11.229Z,52.10
2023-01-29T08:41:11.178Z,49.90
2023-01-29T08:42:11.175Z,51.90
2023-01-29T08:43:11.162Z,51.30
2023-01-29T08:44:11.144Z,49.20
2023-01-29T08:45:11.148Z,50.60
2023-01-29T08:46:11.155Z,49.20
2023-01-29T08:47:11.113Z,48.70
2023-01-29T08:48:11.124Z,49.00
2023-01-29T08:49:11.099Z,47.80
2023-01-29T08:50:11.102Z,54.80
2023-01-29T08:51:11.075Z,55.00
2023-01-29T08:52:11.060Z,53.20
2023-01-29T08:53:11.068Z,51.00
2023-01-29T08:54:11.036Z,49.70
2023-01-29T08:55:11.046Z,49.50
2023-01-29T08:56:11.022Z,49.70
2023-01-29T08:57:11.019Z,52.10
2023-01-29T08:58:11.013Z,51.40
2023-01-29T08:59:10.995Z,52.20
2023-01-29T09:00:10.989Z,59.40
2023-01-29T09:01:11.014Z,52.30
2023-01-29T09:02:11.000Z,51.20
2023-01-29T09:03:10.942Z,54.90
2023-01-29T09:04:10.931Z,53.50
2023-01-29T09:05:10.943Z,55.30
2023-01-29T09:06:10.923Z,53.90
2023-01-29T09:07:10.900Z,55.50
2023-01-29T09:08:10.882Z,56.40
2023-01-29T09:09:10.875Z,53.30
2023-01-29T09:10:10.874Z,55.90
2023-01-29T09:11:10.865Z,52.70
2023-01-29T09:12:10.848Z,56.20
2023-01-29T09:13:10.832Z,57.70
2023-01-29T09:14:10.817Z,53.30
2023-01-29T09:15:10.827Z,57.20
2023-01-29T09:16:10.817Z,58.10
2023-01-29T09:17:10.796Z,53.80
2023-01-29T09:18:10.824Z,56.50
2023-01-29T09:19:10.788Z,58.00
2023-01-29T09:20:10.798Z,59.10
2023-01-29T09:21:10.750Z,57.30
2023-01-29T09:22:11.870Z,58.60
2023-01-29T09:23:10.753Z,56.70
2023-01-29T09:24:10.734Z,63.20
2023-01-29T09:25:10.727Z,63.00
2023-01-29T09:26:10.730Z,59.30
2023-01-29T09:27:10.712Z,61.30
2023-01-29T09:28:10.666Z,63.50
2023-01-29T09:29:10.664Z,63.60
2023-01-29T09:30:10.677Z,63.60
2023-01-29T09:31:10.761Z,63.90
2023-01-29T09:32:10.627Z,58.40
2023-01-29T09:33:10.618Z,61.30
2023-01-29T09:34:10.605Z,63.30
2023-01-29T09:35:10.601Z,58.80
2023-01-29T09:36:10.581Z,61.60
2023-01-29T09:37:10.574Z,59.90
2023-01-29T09:38:10.568Z,60.50
2023-01-29T09:39:10.576Z,63.90
2023-01-29T09:40:10.556Z,60.90
2023-01-29T09:41:10.529Z,58.80
2023-01-29T09:42:10.549Z,57.80
2023-01-29T09:43:10.523Z,59.50
2023-01-29T09:44:10.483Z,58.10
2023-01-29T09:45:10.510Z,63.00
2023-01-29T09:46:10.533Z,58.80
2023-01-29T09:47:10.469Z,61.50
2023-01-29T09:48:10.448Z,55.00
2023-01-29T09:49:10.438Z,60.30
2023-01-29T09:50:10.448Z,57.20
2023-01-29T09:51:10.430Z,61.40
2023-01-29T09:52:10.413Z,60.30
2023-01-29T09:53:10.406Z,56.90
2023-01-29T09:54:10.403Z,61.20
2023-01-29T09:55:10.394Z,60.30
2023-01-29T09:56:10.368Z,59.90
2023-01-29T09:57:10.352Z,61.10
2023-01-29T09:58:10.341Z,58.40
2023-01-29T09:59:10.331Z,59.10
2023-01-29T10:00:10.340Z,60.70
2023-01-29T10:01:10.425Z,64.30
2023-01-29T10:02:10.491Z,59.30
2023-01-29T10:03:10.292Z,59.90
2023-01-29T10:04:10.334Z,61.40
2023-01-29T10:05:10.293Z,60.00
2023-01-29T10:06:10.274Z,54.70
2023-01-29T10:07:10.261Z,55.70
2023-01-29T10:08:10.237Z,55.80
2023-01-29T10:09:10.226Z,54.50
2023-01-29T10:10:10.229Z,53.70
2023-01-29T10:11:10.210Z,60.10
2023-01-29T10:12:10.195Z,54.70
2023-01-29T10:13:10.188Z,56.40
2023-01-29T10:14:10.167Z,56.00
2023-01-29T10:15:10.182Z,54.40
2023-01-29T10:16:10.152Z,56.50
2023-01-29T10:17:10.173Z,57.60
2023-01-29T10:18:10.126Z,55.40
2023-01-29T10:19:10.111Z,56.10
2023-01-29T10:20:10.123Z,55.50
2023-01-29T10:21:10.093Z,57.50
2023-01-29T10:22:10.084Z,56.30
2023-01-29T10:23:10.079Z,56.00
2023-01-29T10:24:10.066Z,53.50
2023-01-29T10:25:10.105Z,56.00
2023-01-29T10:26:10.087Z,51.70
2023-01-29T10:27:10.033Z,55.70
2023-01-29T10:28:10.021Z,54.00
2023-01-29T10:29:10.017Z,54.80
2023-01-29T10:30:10.020Z,52.70
2023-01-29T10:31:10.037Z,52.20
2023-01-29T10:32:10.189Z,54.20
2023-01-29T10:33:09.974Z,56.70
2023-01-29T10:34:09.951Z,53.50
2023-01-29T10:35:09.952Z,53.20
2023-01-29T10:36:09.933Z,55.20
2023-01-29T10:37:09.927Z,55.20
2023-01-29T10:38:09.915Z,56.50
2023-01-29T10:39:09.897Z,54.60
2023-01-29T10:40:09.913Z,53.60
2023-01-29T10:41:09.883Z,53.90
2023-01-29T10:42:09.866Z,51.40
2023-01-29T10:43:09.849Z,47.50
2023-01-29T10:44:09.844Z,50.70
2023-01-29T10:45:09.895Z,50.20
2023-01-29T10:46:09.818Z,48.60
2023-01-29T10:47:09.846Z,44.80
2023-01-29T10:48:09.795Z,44.80
2023-01-29T10:49:09.792Z,43.70
2023-01-29T10:50:09.808Z,43.90
2023-01-29T10:51:09.774Z,43.10
2023-01-29T10:52:09.760Z,40.80
2023-01-29T10:53:09.760Z,42.70
2023-01-29T10:54:09.742Z,41.60
2023-01-29T10:55:09.742Z,40.90
2023-01-29T10:56:21.789Z,43.80
2023-01-29T10:57:09.728Z,40.10
2023-01-29T10:58:09.702Z,41.50
2023-01-29T10:59:09.681Z,39.70
2023-01-29T11:00:09.674Z,42.30
2023-01-29T11:01:09.717Z,42.30
2023-01-29T11:02:09.647Z,40.10
2023-01-29T11:03:12.613Z,38.90
2023-01-29T11:04:09.644Z,38.30
2023-01-29T11:05:10.296Z,38.60
2023-01-29T11:06:09.625Z,39.10
2023-01-29T11:07:09.593Z,38.10
2023-01-29T11:08:09.588Z,42.70
2023-01-29T11:09:09.583Z,36.90
2023-01-29T11:10:09.567Z,38.50
2023-01-29T11:11:09.596Z,43.20
2023-01-29T11:12:09.536Z,40.80
2023-01-29T11:13:09.530Z,38.30
2023-01-29T11:14:09.521Z,39.40
2023-01-29T11:15:09.521Z,35.70
2023-01-29T11:16:09.524Z,34.70
2023-01-29T11:17:09.585Z,38.20
2023-01-29T11:18:09.483Z,39.10
2023-01-29T11:19:09.466Z,37.80
2023-01-29T11:20:09.456Z,36.20
2023-01-29T11:21:09.467Z,37.40
2023-01-29T11:22:09.432Z,36.70
2023-01-29T11:23:09.418Z,35.80
2023-01-29T11:24:09.425Z,36.80
2023-01-29T11:25:09.412Z,40.90
2023-01-29T11:26:09.450Z,35.30
2023-01-29T11:27:09.370Z,35.00
2023-01-29T11:28:09.369Z,37.70
2023-01-29T11:29:09.357Z,37.50
2023-01-29T11:30:09.347Z,34.80
2023-01-29T11:31:09.457Z,34.70
2023-01-29T11:32:09.322Z,34.10
2023-01-29T11:33:09.315Z,35.50
2023-01-29T11:34:09.300Z,34.00
2023-01-29T11:35:09.288Z,34.90
2023-01-29T11:36:09.299Z,36.80
2023-01-29T11:37:09.269Z,36.10
2023-01-29T11:38:09.258Z,36.50
2023-01-29T11:39:09.256Z,36.60
2023-01-29T11:40:09.231Z,32.70
2023-01-29T11:41:09.245Z,37.80
2023-01-29T11:42:09.215Z,36.80
2023-01-29T11:43:09.206Z,35.20
2023-01-29T11:44:09.193Z,36.10
2023-01-29T11:45:09.178Z,34.10
2023-01-29T11:46:09.203Z,32.80
2023-01-29T11:47:09.160Z,34.90
2023-01-29T11:48:09.145Z,34.90
2023-01-29T11:49:20.354Z,31.90
2023-01-29T11:50:09.144Z,32.90
2023-01-29T11:51:09.132Z,38.40
2023-01-29T11:52:09.099Z,36.50
2023-01-29T11:53:09.093Z,35.20
2023-01-29T11:54:09.091Z,35.20
2023-01-29T11:55:09.073Z,34.80
2023-01-29T11:56:09.072Z,34.60
2023-01-29T11:57:09.069Z,31.90
2023-01-29T11:58:09.046Z,33.40
2023-01-29T11:59:09.027Z,33.00
2023-01-29T12:00:09.023Z,33.30
2023-01-29T12:01:09.031Z,33.00
2023-01-29T12:02:08.999Z,31.10
2023-01-29T12:03:08.992Z,34.70
2023-01-29T12:04:09.055Z,32.40
2023-01-29T12:05:08.978Z,35.60
2023-01-29T12:06:09.054Z,33.90
2023-01-29T12:07:08.944Z,33.20
2023-01-29T12:08:08.927Z,34.00
2023-01-29T12:09:08.931Z,31.10
2023-01-29T12:10:08.914Z,35.60
2023-01-29T12:11:08.905Z,32.60
2023-01-29T12:12:08.895Z,33.40
2023-01-29T12:13:08.873Z,30.80
2023-01-29T12:14:08.874Z,31.30
2023-01-29T12:15:08.892Z,34.90
2023-01-29T12:16:08.900Z,30.80
2023-01-29T12:17:08.831Z,31.00
2023-01-29T12:18:08.818Z,38.20
2023-01-29T12:19:08.816Z,35.40
2023-01-29T12:20:08.818Z,33.30
2023-01-29T12:21:08.811Z,34.90
2023-01-29T12:22:08.780Z,32.10
2023-01-29T12:23:08.782Z,33.10
2023-01-29T12:24:08.756Z,31.00
2023-01-29T12:25:08.775Z,33.00
2023-01-29T12:26:08.811Z,31.10
2023-01-29T12:27:08.724Z,31.90
2023-01-29T12:28:09.669Z,32.00
2023-01-29T12:29:08.705Z,32.10
2023-01-29T12:30:08.697Z,32.70
2023-01-29T12:31:08.716Z,30.00
2023-01-29T12:32:08.673Z,30.60
2023-01-29T12:33:08.658Z,33.70
2023-01-29T12:34:08.647Z,32.10
2023-01-29T12:35:08.646Z,32.40
2023-01-29T12:36:10.772Z,32.30
2023-01-29T12:37:08.616Z,32.90
2023-01-29T12:38:08.604Z,30.00
2023-01-29T12:39:08.593Z,33.00
2023-01-29T12:40:08.580Z,35.80
2023-01-29T12:41:08.603Z,28.70
2023-01-29T12:42:08.564Z,33.50
2023-01-29T12:43:08.551Z,32.00
2023-01-29T12:44:08.545Z,33.90
2023-01-29T12:45:08.525Z,32.00
2023-01-29T12:46:08.537Z,33.00
2023-01-29T12:47:08.534Z,33.40
2023-01-29T12:48:08.508Z,30.20
2023-01-29T12:49:08.484Z,32.60
2023-01-29T12:50:08.474Z,32.40
2023-01-29T12:51:08.479Z,32.30
2023-01-29T12:52:08.460Z,31.20
2023-01-29T12:53:08.440Z,33.30
2023-01-29T12:54:08.429Z,31.80
2023-01-29T12:55:08.425Z,32.60
2023-01-29T12:56:08.440Z,30.70
2023-01-29T12:57:08.399Z,31.10
2023-01-29T12:58:08.390Z,31.20